createdAt,value
2023-01-30T00:07:09.830Z,100.00
2023-01-30T00:14:45.011Z,100.00
2023-01-30T00:22:19.170Z,100.00
2023-01-30T00:30:02.904Z,100.00
2023-01-30T00:37:37.197Z,100.00
2023-01-30T00:45:31.779Z,100.00
2023-01-30T00:53:05.525Z,100.00
2023-01-30T01:00:41.144Z,100.00
2023-01-30T01:08:15.508Z,100.00
2023-01-30T01:15:50.802Z,100.00
2023-01-30T01:23:24.369Z,100.00
2023-01-30T01:30:59.791Z,100.00
2023-01-30T01:38:33.708Z,100.00
2023-01-30T01:46:15.475Z,100.00
2023-01-30T01:53:56.581Z,100.00
2023-01-30T02:01:33.018Z,100.00
2023-01-30T02:09:09.842Z,100.00
2023-01-30T02:16:47.575Z,100.00
2023-01-30T02:24:46.227Z,100.00
2023-01-30T02:32:33.473Z,100.00
2023-01-30T02:40:18.781Z,100.00
2023-01-30T02:48:00.489Z,100.00
2023-01-30T02:55:34.644Z,100.00
2023-01-30T03:03:36.155Z,100.00
2023-01-30T03:11:11.438Z,100.00
2023-01-30T03:18:47.450Z,100.00
2023-01-30T03:26:25.930Z,100.00
2023-01-30T03:34:01.279Z,100.00
2023-01-30T03:41:35.684Z,100.00
2023-01-30T03:49:10.929Z,100.00
2023-01-30T03:56:44.622Z,100.00
2023-01-30T04:04:20.252Z,100.00
2023-01-30T04:11:54.385Z,100.00
2023-01-30T04:19:29.491Z,100.00
2023-01-30T04:27:03.654Z,100.00
2023-01-30T04:34:39.010Z,100.00
2023-01-30T04:42:12.911Z,100.00
2023-01-30T04:49:48.360Z,100.00
2023-01-30T04:57:22.200Z,100.00
2023-01-30T05:04:57.370Z,100.00
2023-01-30T05:12:31.704Z,100.00
2023-01-30T05:20:07.661Z,100.00
2023-01-30T05:27:41.660Z,100.00
2023-01-30T05:35:17.379Z,100.00
2023-01-30T05:42:51.353Z,100.00
2023-01-30T05:50:26.938Z,100.00
2023-01-30T05:58:00.703Z,100.00
2023-01-30T06:05:38.691Z,100.00
2023-01-30T06:13:12.420Z,100.00
2023-01-30T06:20:50.267Z,100.00
2023-01-30T06:28:25.815Z,100.00
2023-01-30T06:36:01.174Z,100.00
2023-01-30T06:43:34.972Z,100.00
2023-01-30T06:51:10.361Z,100.00
2023-01-30T06:58:44.338Z,100.00
2023-01-30T07:06:20.097Z,100.00
2023-01-30T07:13:53.939Z,100.00
2023-01-30T07:21:29.259Z,100.00
2023-01-30T07:29:03.145Z,100.00
2023-01-30T07:36:38.715Z,100.00
2023-01-30T07:44:13.786Z,100.00
2023-01-30T07:51:49.085Z,100.00
2023-01-30T07:59:22.883Z,100.00
2023-01-30T08:06:58.071Z,100.00
2023-01-30T08:14:32.011Z,100.00
2023-01-30T08:22:07.237Z,100.00
2023-01-30T08:29:41.486Z,100.00
2023-01-30T08:37:17.957Z,100.00
2023-01-30T08:44:52.002Z,100.00
2023-01-30T08:52:27.266Z,100.00
2023-01-30T09:00:01.086Z,100.00
2023-01-30T09:07:36.355Z,100.00
2023-01-30T09:15:11.842Z,100.00
2023-01-30T09:22:47.191Z,100.00
2023-01-30T09:30:21.527Z,100.00
2023-01-30T09:37:56.933Z,100.00
2023-01-30T09:45:45.518Z,100.00
2023-01-30T09:53:31.648Z,100.00
2023-01-30T10:01:15.246Z,100.00
2023-01-30T10:08:59.905Z,100.00
2023-01-30T10:16:39.105Z,100.00
2023-01-30T10:24:38.384Z,100.00
2023-01-30T10:32:16.527Z,100.00
2023-01-30T10:39:58.924Z,100.00
2023-01-30T10:47:48.705Z,100.00
2023-01-30T10:55:37.552Z,100.00
2023-01-30T11:03:29.606Z,100.00
2023-01-30T11:11:25.075Z,100.00
2023-01-30T11:19:20.628Z,100.00
2023-01-30T11:26:57.968Z,100.00
2023-01-30T11:34:32.027Z,100.00
2023-01-30T11:42:12.192Z,100.00
2023-01-30T11:50:08.700Z,100.00
2023-01-30T11:57:54.192Z,100.00
2023-01-30T12:05:35.603Z,95.43
2023-01-30T12:13:19.136Z,97.75
2023-01-30T12:20:59.637Z,97.41
2023-01-30T12:28:43.235Z,94.58
2023-01-30T12:36:29.930Z,100.00
2023-01-30T12:44:40.136Z,96.63
2023-01-30T12:52:32.331Z,94.65
2023-01-30T13:00:26.004Z,90.83
2023-01-30T13:08:23.420Z,88.09
2023-01-30T13:16:05.934Z,89.44
2023-01-30T13:23:54.615Z,91.09
2023-01-30T13:31:34.000Z,91.99
2023-01-30T13:39:14.332Z,92.59
2023-01-30T13:46:52.721Z,100.00
2023-01-30T13:54:43.804Z,100.00
2023-01-30T14:02:21.648Z,100.00
2023-01-30T14:10:13.779Z,100.00
2023-01-30T14:18:01.847Z,100.00
2023-01-30T14:25:48.460Z,100.00
2023-01-30T14:33:48.931Z,100.00
2023-01-30T14:41:29.149Z,100.00
2023-01-30T14:49:14.668Z,100.00
2023-01-30T14:56:54.219Z,100.00
2023-01-30T15:04:33.789Z,100.00
2023-01-30T15:12:29.153Z,100.00
2023-01-30T15:20:19.240Z,100.00
2023-01-30T15:28:04.376Z,100.00
2023-01-30T15:35:39.662Z,100.00
2023-01-30T15:43:32.589Z,100.00
2023-01-30T15:51:13.730Z,100.00
2023-01-30T15:58:48.016Z,100.00
2023-01-30T16:06:33.177Z,100.00
2023-01-30T16:14:08.094Z,100.00
2023-01-30T16:21:47.341Z,100.00
2023-01-30T16:29:24.170Z,100.00
2023-01-30T16:37:04.536Z,100.00
2023-01-30T16:44:38.484Z,100.00
2023-01-30T16:52:20.429Z,100.00
2023-01-30T16:59:54.528Z,100.00
2023-01-30T17:07:38.644Z,100.00
2023-01-30T17:15:32.872Z,100.00
2023-01-30T17:23:10.649Z,100.00
2023-01-30T17:30:44.597Z,100.00
2023-01-30T17:38:20.030Z,100.00
2023-01-30T17:45:55.539Z,100.00
2023-01-30T17:53:32.170Z,100.00
2023-01-30T18:01:06.389Z,100.00
2023-01-30T18:08:41.902Z,100.00
2023-01-30T18:16:20.636Z,100.00
2023-01-30T18:23:55.911Z,100.00
2023-01-30T18:31:31.026Z,100.00
2023-01-30T18:39:07.427Z,100.00
2023-01-30T18:46:41.427Z,100.00
2023-01-30T18:54:17.064Z,100.00
2023-01-30T19:01:50.836Z,100.00
2023-01-30T19:09:27.569Z,100.00
2023-01-30T19:17:01.342Z,100.00
2023-01-30T19:24:36.474Z,100.00
2023-01-30T19:32:10.621Z,100.00
2023-01-30T19:39:45.743Z,100.00
2023-01-30T19:47:21.857Z,100.00
2023-01-30T19:54:57.415Z,100.00
2023-01-30T20:02:31.409Z,100.00
2023-01-30T20:10:07.651Z,100.00
2023-01-30T20:17:42.081Z,100.00
2023-01-30T20:25:17.656Z,100.00
2023-01-30T20:32:54.880Z,100.00
2023-01-30T20:40:30.117Z,100.00
2023-01-30T20:48:04.388Z,100.00
2023-01-30T20:55:39.646Z,100.00
2023-01-30T21:03:13.475Z,100.00
2023-01-30T21:10:49.048Z,100.00
2023-01-30T21:18:22.895Z,100.00
2023-01-30T21:25:58.503Z,100.00
2023-01-30T21:33:32.447Z,100.00
2023-01-30T21:41:27.632Z,100.00
2023-01-30T21:49:01.536Z,100.00
2023-01-30T21:56:37.819Z,100.00
2023-01-30T22:04:14.108Z,100.00
2023-01-30T22:11:49.557Z,100.00
2023-01-30T22:19:23.347Z,100.00
2023-01-30T22:26:58.777Z,100.00
2023-01-30T22:34:35.844Z,100.00
2023-01-30T22:42:11.279Z,100.00
2023-01-30T22:49:44.990Z,100.00
2023-01-30T22:57:20.400Z,100.00
2023-01-30T23:04:54.217Z,100.00
2023-01-30T23:12:48.453Z,100.00
2023-01-30T23:20:22.368Z,100.00
2023-01-30T23:27:57.421Z,100.00
2023-01-30T23:35:32.697Z,100.00
2023-01-30T23:43:08.028Z,100.00
2023-01-30T23:50:43.197Z,100.00
2023-01-30T23:58:18.574Z,100.00
